sensor_id;sensor_type;location;lat;lon;timestamp;P1;durP1;ratioP1;P2;durP2;ratioP2
23146;SDS011;11742;53.532;-1.478;2024-01-10T00:01:03;3.50;;;1.05;;
23146;SDS011;11742;53.532;-1.478;2024-01-10T00:03:48;3.22;;;0.82;;
23146;SDS011;11742;53.532;-1.478;2024-01-10T00:06:32;3.25;;;0.77;;
23146;SDS011;11742;53.532;-1.478;2024-01-10T00:09:16;1.13;;;0.80;;
23146;SDS011;11742;53.532;-1.478;2024-01-10T00:12:00;1.50;;;0.80;;
23146;SDS011;11742;53.532;-1.478;2024-01-10T00:14:44;0.75;;;0.70;;
23146;SDS011;11742;53.532;-1.478;2024-01-10T00:17:28;3.00;;;0.80;;
23146;SDS011;11742;53.532;-1.478;2024-01-10T00:20:12;1.52;;;0.70;;
23146;SDS011;11742;53.532;-1.478;2024-01-10T00:22:57;1.10;;;0.80;;
23146;SDS011;11742;53.532;-1.478;2024-01-10T00:25:42;2.33;;;0.60;;
23146;SDS011;11742;53.532;-1.478;2024-01-10T00:28:26;1.40;;;0.60;;
23146;SDS011;11742;53.532;-1.478;2024-01-10T00:31:10;0.98;;;0.80;;
23146;SDS011;11742;53.532;-1.478;2024-01-10T00:33:54;2.22;;;0.60;;
23146;SDS011;11742;53.532;-1.478;2024-01-10T00:36:38;1.13;;;0.80;;
23146;SDS011;11742;53.532;-1.478;2024-01-10T00:39:23;1.80;;;0.93;;
23146;SDS011;11742;53.532;-1.478;2024-01-10T00:42:07;1.13;;;0.75;;
23146;SDS011;11742;53.532;-1.478;2024-01-10T00:44:51;1.20;;;0.60;;
23146;SDS011;11742;53.532;-1.478;2024-01-10T00:47:35;2.00;;;0.60;;
23146;SDS011;11742;53.532;-1.478;2024-01-10T00:50:19;0.55;;;0.50;;
23146;SDS011;11742;53.532;-1.478;2024-01-10T00:53:03;0.82;;;0.40;;
23146;SDS011;11742;53.532;-1.478;2024-01-10T00:55:47;2.20;;;0.68;;
23146;SDS011;11742;53.532;-1.478;2024-01-10T00:58:32;2.22;;;0.50;;
23146;SDS011;11742;53.532;-1.478;2024-01-10T01:01:16;1.33;;;0.85;;
23146;SDS011;11742;53.532;-1.478;2024-01-10T01:04:00;0.50;;;0.50;;
23146;SDS011;11742;53.532;-1.478;2024-01-10T01:06:44;2.35;;;0.90;;
23146;SDS011;11742;53.532;-1.478;2024-01-10T01:09:28;1.20;;;0.50;;
23146;SDS011;11742;53.532;-1.478;2024-01-10T01:12:12;1.05;;;0.60;;
23146;SDS011;11742;53.532;-1.478;2024-01-10T01:14:56;1.05;;;0.50;;
23146;SDS011;11742;53.532;-1.478;2024-01-10T01:17:41;0.50;;;0.50;;
23146;SDS011;11742;53.532;-1.478;2024-01-10T01:20:25;0.95;;;0.50;;
23146;SDS011;11742;53.532;-1.478;2024-01-10T01:23:09;2.03;;;0.65;;
23146;SDS011;11742;53.532;-1.478;2024-01-10T01:25:54;1.00;;;0.45;;
23146;SDS011;11742;53.532;-1.478;2024-01-10T01:28:38;1.13;;;0.65;;
23146;SDS011;11742;53.532;-1.478;2024-01-10T01:31:25;0.73;;;0.50;;
23146;SDS011;11742;53.532;-1.478;2024-01-10T01:34:09;1.35;;;0.50;;
23146;SDS011;11742;53.532;-1.478;2024-01-10T01:36:53;0.75;;;0.50;;
23146;SDS011;11742;53.532;-1.478;2024-01-10T01:39:38;1.63;;;0.40;;
23146;SDS011;11742;53.532;-1.478;2024-01-10T01:42:22;2.22;;;0.60;;
23146;SDS011;11742;53.532;-1.478;2024-01-10T01:45:07;1.85;;;0.50;;
23146;SDS011;11742;53.532;-1.478;2024-01-10T01:47:52;1.13;;;0.60;;
23146;SDS011;11742;53.532;-1.478;2024-01-10T01:50:36;0.63;;;0.40;;
23146;SDS011;11742;53.532;-1.478;2024-01-10T01:53:21;1.65;;;0.85;;
23146;SDS011;11742;53.532;-1.478;2024-01-10T01:56:06;0.75;;;0.50;;
23146;SDS011;11742;53.532;-1.478;2024-01-10T01:58:51;1.20;;;0.50;;
23146;SDS011;11742;53.532;-1.478;2024-01-10T02:01:37;0.82;;;0.57;;
23146;SDS011;11742;53.532;-1.478;2024-01-10T02:04:23;1.08;;;0.63;;
23146;SDS011;11742;53.532;-1.478;2024-01-10T02:07:07;0.82;;;0.40;;
23146;SDS011;11742;53.532;-1.478;2024-01-10T02:09:51;1.40;;;0.60;;
23146;SDS011;11742;53.532;-1.478;2024-01-10T02:12:35;1.33;;;0.50;;
23146;SDS011;11742;53.532;-1.478;2024-01-10T02:15:20;0.77;;;0.50;;
23146;SDS011;11742;53.532;-1.478;2024-01-10T02:18:04;0.38;;;0.38;;
23146;SDS011;11742;53.532;-1.478;2024-01-10T02:20:54;0.73;;;0.55;;
23146;SDS011;11742;53.532;-1.478;2024-01-10T02:23:38;1.40;;;0.50;;
23146;SDS011;11742;53.532;-1.478;2024-01-10T02:26:22;0.50;;;0.50;;
23146;SDS011;11742;53.532;-1.478;2024-01-10T02:29:06;0.70;;;0.63;;
23146;SDS011;11742;53.532;-1.478;2024-01-10T02:31:50;1.90;;;0.90;;
23146;SDS011;11742;53.532;-1.478;2024-01-10T02:34:34;0.45;;;0.45;;
23146;SDS011;11742;53.532;-1.478;2024-01-10T02:37:18;0.50;;;0.50;;
23146;SDS011;11742;53.532;-1.478;2024-01-10T02:40:03;2.88;;;0.60;;
23146;SDS011;11742;53.532;-1.478;2024-01-10T02:42:48;0.90;;;0.50;;
23146;SDS011;11742;53.532;-1.478;2024-01-10T02:45:34;0.60;;;0.55;;
23146;SDS011;11742;53.532;-1.478;2024-01-10T02:48:19;0.90;;;0.70;;
23146;SDS011;11742;53.532;-1.478;2024-01-10T02:51:04;0.63;;;0.60;;
23146;SDS011;11742;53.532;-1.478;2024-01-10T02:53:48;2.75;;;0.57;;
23146;SDS011;11742;53.532;-1.478;2024-01-10T02:56:32;0.60;;;0.60;;
23146;SDS011;11742;53.532;-1.478;2024-01-10T02:59:17;1.05;;;0.70;;
23146;SDS011;11742;53.532;-1.478;2024-01-10T03:02:01;0.85;;;0.70;;
23146;SDS011;11742;53.532;-1.478;2024-01-10T03:04:46;1.05;;;0.60;;
23146;SDS011;11742;53.532;-1.478;2024-01-10T03:07:31;1.02;;;0.68;;
23146;SDS011;11742;53.532;-1.478;2024-01-10T03:10:15;1.02;;;0.70;;
23146;SDS011;11742;53.532;-1.478;2024-01-10T03:12:59;0.73;;;0.50;;
23146;SDS011;11742;53.532;-1.478;2024-01-10T03:15:43;1.65;;;0.70;;
23146;SDS011;11742;53.532;-1.478;2024-01-10T03:18:27;0.98;;;0.57;;
23146;SDS011;11742;53.532;-1.478;2024-01-10T03:21:11;2.45;;;0.80;;
23146;SDS011;11742;53.532;-1.478;2024-01-10T03:23:59;1.35;;;0.95;;
23146;SDS011;11742;53.532;-1.478;2024-01-10T03:26:44;1.30;;;0.80;;
23146;SDS011;11742;53.532;-1.478;2024-01-10T03:29:28;1.50;;;0.80;;
23146;SDS011;11742;53.532;-1.478;2024-01-10T03:32:12;1.35;;;0.73;;
23146;SDS011;11742;53.532;-1.478;2024-01-10T03:34:57;2.28;;;0.68;;
23146;SDS011;11742;53.532;-1.478;2024-01-10T03:37:41;1.42;;;0.82;;
23146;SDS011;11742;53.532;-1.478;2024-01-10T03:40:26;1.80;;;0.93;;
23146;SDS011;11742;53.532;-1.478;2024-01-10T03:43:10;0.98;;;0.88;;
23146;SDS011;11742;53.532;-1.478;2024-01-10T03:45:56;1.73;;;0.90;;
23146;SDS011;11742;53.532;-1.478;2024-01-10T03:48:41;1.92;;;0.95;;
23146;SDS011;11742;53.532;-1.478;2024-01-10T03:51:31;1.00;;;0.82;;
23146;SDS011;11742;53.532;-1.478;2024-01-10T03:54:15;2.08;;;1.10;;
23146;SDS011;11742;53.532;-1.478;2024-01-10T03:56:59;1.60;;;1.17;;
23146;SDS011;11742;53.532;-1.478;2024-01-10T03:59:44;1.50;;;1.00;;
23146;SDS011;11742;53.532;-1.478;2024-01-10T04:02:29;1.00;;;0.90;;
23146;SDS011;11742;53.532;-1.478;2024-01-10T04:05:13;4.25;;;1.60;;
23146;SDS011;11742;53.532;-1.478;2024-01-10T04:07:57;0.95;;;0.80;;
23146;SDS011;11742;53.532;-1.478;2024-01-10T04:10:42;1.10;;;0.93;;
23146;SDS011;11742;53.532;-1.478;2024-01-10T04:13:25;1.52;;;1.13;;
23146;SDS011;11742;53.532;-1.478;2024-01-10T04:16:10;3.50;;;1.13;;
23146;SDS011;11742;53.532;-1.478;2024-01-10T04:18:55;1.83;;;1.00;;
23146;SDS011;11742;53.532;-1.478;2024-01-10T04:21:42;2.58;;;0.80;;
23146;SDS011;11742;53.532;-1.478;2024-01-10T04:24:27;1.85;;;1.05;;
23146;SDS011;11742;53.532;-1.478;2024-01-10T04:27:11;1.10;;;0.98;;
23146;SDS011;11742;53.532;-1.478;2024-01-10T04:29:55;1.02;;;0.82;;
23146;SDS011;11742;53.532;-1.478;2024-01-10T04:32:39;1.08;;;0.70;;
23146;SDS011;11742;53.532;-1.478;2024-01-10T04:35:24;1.08;;;0.98;;
23146;SDS011;11742;53.532;-1.478;2024-01-10T04:38:08;0.82;;;0.82;;
23146;SDS011;11742;53.532;-1.478;2024-01-10T04:40:52;1.67;;;1.00;;
23146;SDS011;11742;53.532;-1.478;2024-01-10T04:43:36;1.40;;;0.88;;
23146;SDS011;11742;53.532;-1.478;2024-01-10T04:46:21;1.00;;;0.88;;
23146;SDS011;11742;53.532;-1.478;2024-01-10T04:49:05;0.80;;;0.77;;
23146;SDS011;11742;53.532;-1.478;2024-01-10T04:51:49;1.02;;;0.70;;
23146;SDS011;11742;53.532;-1.478;2024-01-10T04:54:34;0.82;;;0.82;;
23146;SDS011;11742;53.532;-1.478;2024-01-10T04:57:18;0.82;;;0.80;;
23146;SDS011;11742;53.532;-1.478;2024-01-10T05:00:03;0.95;;;0.80;;
23146;SDS011;11742;53.532;-1.478;2024-01-10T05:02:48;0.93;;;0.70;;
23146;SDS011;11742;53.532;-1.478;2024-01-10T05:05:32;2.80;;;0.80;;
23146;SDS011;11742;53.532;-1.478;2024-01-10T05:08:17;1.52;;;1.00;;
23146;SDS011;11742;53.532;-1.478;2024-01-10T05:11:03;1.08;;;0.90;;
23146;SDS011;11742;53.532;-1.478;2024-01-10T05:13:48;0.70;;;0.70;;
23146;SDS011;11742;53.532;-1.478;2024-01-10T05:16:32;0.98;;;0.90;;
23146;SDS011;11742;53.532;-1.478;2024-01-10T05:19:17;1.48;;;1.10;;
23146;SDS011;11742;53.532;-1.478;2024-01-10T05:22:01;1.55;;;1.00;;
23146;SDS011;11742;53.532;-1.478;2024-01-10T05:24:46;1.33;;;1.10;;
23146;SDS011;11742;53.532;-1.478;2024-01-10T05:27:30;1.00;;;0.90;;
23146;SDS011;11742;53.532;-1.478;2024-01-10T05:30:14;1.27;;;1.00;;
23146;SDS011;11742;53.532;-1.478;2024-01-10T05:32:59;1.15;;;0.95;;
23146;SDS011;11742;53.532;-1.478;2024-01-10T05:35:43;0.90;;;0.80;;
23146;SDS011;11742;53.532;-1.478;2024-01-10T05:38:27;2.97;;;0.95;;
23146;SDS011;11742;53.532;-1.478;2024-01-10T05:41:11;1.88;;;0.90;;
23146;SDS011;11742;53.532;-1.478;2024-01-10T05:43:55;1.17;;;0.70;;
23146;SDS011;11742;53.532;-1.478;2024-01-10T05:46:40;1.02;;;0.80;;
23146;SDS011;11742;53.532;-1.478;2024-01-10T05:49:25;1.38;;;0.60;;
23146;SDS011;11742;53.532;-1.478;2024-01-10T05:52:10;1.35;;;0.80;;
23146;SDS011;11742;53.532;-1.478;2024-01-10T05:54:55;0.73;;;0.70;;
23146;SDS011;11742;53.532;-1.478;2024-01-10T05:57:39;1.00;;;0.90;;
23146;SDS011;11742;53.532;-1.478;2024-01-10T06:00:24;0.73;;;0.73;;
23146;SDS011;11742;53.532;-1.478;2024-01-10T06:03:08;0.50;;;0.50;;
23146;SDS011;11742;53.532;-1.478;2024-01-10T06:05:53;2.10;;;0.80;;
23146;SDS011;11742;53.532;-1.478;2024-01-10T06:08:37;2.10;;;0.63;;
23146;SDS011;11742;53.532;-1.478;2024-01-10T06:11:21;0.77;;;0.70;;
23146;SDS011;11742;53.532;-1.478;2024-01-10T06:14:05;1.05;;;0.77;;
23146;SDS011;11742;53.532;-1.478;2024-01-10T06:16:49;2.05;;;0.50;;
23146;SDS011;11742;53.532;-1.478;2024-01-10T06:19:34;0.80;;;0.63;;
23146;SDS011;11742;53.532;-1.478;2024-01-10T06:22:18;0.73;;;0.60;;
23146;SDS011;11742;53.532;-1.478;2024-01-10T06:25:08;3.25;;;0.65;;
23146;SDS011;11742;53.532;-1.478;2024-01-10T06:27:52;0.90;;;0.70;;
23146;SDS011;11742;53.532;-1.478;2024-01-10T06:30:36;1.25;;;1.15;;
23146;SDS011;11742;53.532;-1.478;2024-01-10T06:33:20;1.63;;;0.70;;
23146;SDS011;11742;53.532;-1.478;2024-01-10T06:36:05;0.50;;;0.50;;
23146;SDS011;11742;53.532;-1.478;2024-01-10T06:38:49;0.55;;;0.50;;
23146;SDS011;11742;53.532;-1.478;2024-01-10T06:41:33;1.20;;;0.88;;
23146;SDS011;11742;53.532;-1.478;2024-01-10T06:44:18;1.25;;;0.50;;
23146;SDS011;11742;53.532;-1.478;2024-01-10T06:47:02;2.80;;;2.08;;
23146;SDS011;11742;53.532;-1.478;2024-01-10T06:49:47;1.13;;;0.77;;
23146;SDS011;11742;53.532;-1.478;2024-01-10T06:52:31;1.00;;;0.60;;
23146;SDS011;11742;53.532;-1.478;2024-01-10T06:55:16;4.53;;;0.70;;
23146;SDS011;11742;53.532;-1.478;2024-01-10T06:58:02;1.17;;;0.68;;
23146;SDS011;11742;53.532;-1.478;2024-01-10T07:00:46;0.50;;;0.50;;
23146;SDS011;11742;53.532;-1.478;2024-01-10T07:03:33;1.08;;;0.70;;
23146;SDS011;11742;53.532;-1.478;2024-01-10T07:06:18;1.25;;;0.70;;
23146;SDS011;11742;53.532;-1.478;2024-01-10T07:09:02;2.03;;;0.70;;
23146;SDS011;11742;53.532;-1.478;2024-01-10T07:11:49;0.60;;;0.60;;
23146;SDS011;11742;53.532;-1.478;2024-01-10T07:14:33;1.00;;;0.60;;
23146;SDS011;11742;53.532;-1.478;2024-01-10T07:17:17;0.88;;;0.80;;
23146;SDS011;11742;53.532;-1.478;2024-01-10T07:20:01;1.15;;;0.82;;
23146;SDS011;11742;53.532;-1.478;2024-01-10T07:22:46;1.23;;;0.70;;
23146;SDS011;11742;53.532;-1.478;2024-01-10T07:25:32;0.85;;;0.70;;
23146;SDS011;11742;53.532;-1.478;2024-01-10T07:28:17;1.27;;;0.68;;
23146;SDS011;11742;53.532;-1.478;2024-01-10T07:31:02;0.77;;;0.70;;
23146;SDS011;11742;53.532;-1.478;2024-01-10T07:33:47;1.65;;;0.90;;
23146;SDS011;11742;53.532;-1.478;2024-01-10T07:36:31;0.52;;;0.52;;
23146;SDS011;11742;53.532;-1.478;2024-01-10T07:39:17;0.80;;;0.80;;
23146;SDS011;11742;53.532;-1.478;2024-01-10T07:42:01;0.90;;;0.70;;
23146;SDS011;11742;53.532;-1.478;2024-01-10T07:44:46;1.20;;;0.70;;
23146;SDS011;11742;53.532;-1.478;2024-01-10T07:47:30;1.15;;;0.63;;
23146;SDS011;11742;53.532;-1.478;2024-01-10T07:50:15;0.85;;;0.85;;
23146;SDS011;11742;53.532;-1.478;2024-01-10T07:52:59;2.28;;;0.80;;
23146;SDS011;11742;53.532;-1.478;2024-01-10T07:55:44;1.25;;;1.15;;
23146;SDS011;11742;53.532;-1.478;2024-01-10T07:58:28;0.77;;;0.60;;
23146;SDS011;11742;53.532;-1.478;2024-01-10T08:01:12;0.82;;;0.75;;
23146;SDS011;11742;53.532;-1.478;2024-01-10T08:03:58;0.63;;;0.60;;
23146;SDS011;11742;53.532;-1.478;2024-01-10T08:06:42;1.77;;;0.70;;
23146;SDS011;11742;53.532;-1.478;2024-01-10T08:09:26;0.75;;;0.73;;
23146;SDS011;11742;53.532;-1.478;2024-01-10T08:12:10;1.60;;;0.70;;
23146;SDS011;11742;53.532;-1.478;2024-01-10T08:14:55;0.52;;;0.52;;
23146;SDS011;11742;53.532;-1.478;2024-01-10T08:17:39;0.70;;;0.70;;
23146;SDS011;11742;53.532;-1.478;2024-01-10T08:20:23;0.68;;;0.68;;
23146;SDS011;11742;53.532;-1.478;2024-01-10T08:23:07;1.08;;;0.73;;
23146;SDS011;11742;53.532;-1.478;2024-01-10T08:25:52;0.98;;;0.70;;
23146;SDS011;11742;53.532;-1.478;2024-01-10T08:28:36;1.25;;;0.80;;
23146;SDS011;11742;53.532;-1.478;2024-01-10T08:31:20;2.20;;;0.75;;
23146;SDS011;11742;53.532;-1.478;2024-01-10T08:34:04;0.93;;;0.70;;
23146;SDS011;11742;53.532;-1.478;2024-01-10T08:36:48;0.90;;;0.80;;
23146;SDS011;11742;53.532;-1.478;2024-01-10T08:39:35;0.85;;;0.85;;
23146;SDS011;11742;53.532;-1.478;2024-01-10T08:42:19;0.80;;;0.80;;
23146;SDS011;11742;53.532;-1.478;2024-01-10T08:45:03;1.70;;;0.90;;
23146;SDS011;11742;53.532;-1.478;2024-01-10T08:47:48;0.95;;;0.95;;
23146;SDS011;11742;53.532;-1.478;2024-01-10T08:50:32;0.70;;;0.70;;
23146;SDS011;11742;53.532;-1.478;2024-01-10T08:53:17;1.25;;;0.85;;
23146;SDS011;11742;53.532;-1.478;2024-01-10T08:56:02;1.30;;;0.73;;
23146;SDS011;11742;53.532;-1.478;2024-01-10T08:58:46;1.40;;;0.90;;
23146;SDS011;11742;53.532;-1.478;2024-01-10T09:01:30;1.15;;;0.90;;
23146;SDS011;11742;53.532;-1.478;2024-01-10T09:04:15;0.88;;;0.88;;
23146;SDS011;11742;53.532;-1.478;2024-01-10T09:06:59;0.50;;;0.50;;
23146;SDS011;11742;53.532;-1.478;2024-01-10T09:09:43;0.80;;;0.80;;
23146;SDS011;11742;53.532;-1.478;2024-01-10T09:12:27;0.80;;;0.80;;
23146;SDS011;11742;53.532;-1.478;2024-01-10T09:15:12;1.92;;;0.90;;
23146;SDS011;11742;53.532;-1.478;2024-01-10T09:17:58;1.50;;;1.10;;
23146;SDS011;11742;53.532;-1.478;2024-01-10T09:20:42;1.08;;;0.95;;
23146;SDS011;11742;53.532;-1.478;2024-01-10T09:23:27;0.70;;;0.70;;
23146;SDS011;11742;53.532;-1.478;2024-01-10T09:26:12;0.77;;;0.77;;
23146;SDS011;11742;53.532;-1.478;2024-01-10T09:28:56;1.00;;;0.70;;
23146;SDS011;11742;53.532;-1.478;2024-01-10T09:31:40;0.73;;;0.60;;
23146;SDS011;11742;53.532;-1.478;2024-01-10T09:34:27;1.05;;;0.63;;
23146;SDS011;11742;53.532;-1.478;2024-01-10T09:37:12;0.88;;;0.70;;
23146;SDS011;11742;53.532;-1.478;2024-01-10T09:39:56;1.20;;;0.70;;
23146;SDS011;11742;53.532;-1.478;2024-01-10T09:42:40;0.60;;;0.60;;
23146;SDS011;11742;53.532;-1.478;2024-01-10T09:45:24;1.08;;;0.80;;
23146;SDS011;11742;53.532;-1.478;2024-01-10T09:48:12;1.02;;;0.70;;
23146;SDS011;11742;53.532;-1.478;2024-01-10T09:50:57;1.35;;;0.77;;
23146;SDS011;11742;53.532;-1.478;2024-01-10T09:53:44;0.65;;;0.65;;
23146;SDS011;11742;53.532;-1.478;2024-01-10T09:56:32;0.70;;;0.70;;
23146;SDS011;11742;53.532;-1.478;2024-01-10T09:59:16;0.82;;;0.68;;
23146;SDS011;11742;53.532;-1.478;2024-01-10T10:02:00;0.80;;;0.80;;
23146;SDS011;11742;53.532;-1.478;2024-01-10T10:04:53;1.15;;;0.68;;
23146;SDS011;11742;53.532;-1.478;2024-01-10T10:07:48;1.10;;;0.70;;
23146;SDS011;11742;53.532;-1.478;2024-01-10T10:10:34;1.13;;;0.70;;
23146;SDS011;11742;53.532;-1.478;2024-01-10T10:13:27;0.95;;;0.75;;
23146;SDS011;11742;53.532;-1.478;2024-01-10T10:16:12;0.85;;;0.77;;
23146;SDS011;11742;53.532;-1.478;2024-01-10T10:18:56;1.35;;;0.90;;
23146;SDS011;11742;53.532;-1.478;2024-01-10T10:21:42;0.85;;;0.85;;
23146;SDS011;11742;53.532;-1.478;2024-01-10T10:24:27;0.95;;;0.70;;
23146;SDS011;11742;53.532;-1.478;2024-01-10T10:27:12;1.00;;;0.70;;
23146;SDS011;11742;53.532;-1.478;2024-01-10T10:29:57;0.70;;;0.68;;
23146;SDS011;11742;53.532;-1.478;2024-01-10T10:32:41;0.77;;;0.77;;
23146;SDS011;11742;53.532;-1.478;2024-01-10T10:35:26;0.80;;;0.70;;
23146;SDS011;11742;53.532;-1.478;2024-01-10T10:38:10;1.17;;;0.77;;
23146;SDS011;11742;53.532;-1.478;2024-01-10T10:40:55;1.35;;;0.70;;
23146;SDS011;11742;53.532;-1.478;2024-01-10T10:43:42;1.25;;;0.80;;
23146;SDS011;11742;53.532;-1.478;2024-01-10T10:46:26;1.17;;;0.82;;
23146;SDS011;11742;53.532;-1.478;2024-01-10T10:49:11;1.70;;;0.80;;
23146;SDS011;11742;53.532;-1.478;2024-01-10T10:51:57;0.88;;;0.70;;
23146;SDS011;11742;53.532;-1.478;2024-01-10T10:54:43;0.63;;;0.60;;
23146;SDS011;11742;53.532;-1.478;2024-01-10T10:57:30;0.68;;;0.68;;
23146;SDS011;11742;53.532;-1.478;2024-01-10T11:00:19;0.95;;;0.63;;
23146;SDS011;11742;53.532;-1.478;2024-01-10T11:03:05;0.73;;;0.73;;
23146;SDS011;11742;53.532;-1.478;2024-01-10T11:05:54;0.68;;;0.68;;
23146;SDS011;11742;53.532;-1.478;2024-01-10T11:09:21;0.63;;;0.60;;
23146;SDS011;11742;53.532;-1.478;2024-01-10T11:23:49;0.70;;;0.70;;
23146;SDS011;11742;53.532;-1.478;2024-01-10T11:26:37;1.35;;;1.00;;
23146;SDS011;11742;53.532;-1.478;2024-01-10T11:29:21;1.23;;;0.95;;
23146;SDS011;11742;53.532;-1.478;2024-01-10T11:32:06;1.17;;;0.85;;
23146;SDS011;11742;53.532;-1.478;2024-01-10T11:37:43;1.40;;;0.90;;
23146;SDS011;11742;53.532;-1.478;2024-01-10T11:40:47;1.23;;;0.77;;
23146;SDS011;11742;53.532;-1.478;2024-01-10T11:43:32;1.63;;;0.95;;
23146;SDS011;11742;53.532;-1.478;2024-01-10T11:46:16;1.27;;;0.70;;
23146;SDS011;11742;53.532;-1.478;2024-01-10T11:49:01;1.25;;;0.80;;
23146;SDS011;11742;53.532;-1.478;2024-01-10T11:51:46;1.25;;;0.75;;
23146;SDS011;11742;53.532;-1.478;2024-01-10T11:54:42;1.00;;;0.85;;
23146;SDS011;11742;53.532;-1.478;2024-01-10T11:57:28;0.80;;;0.73;;
23146;SDS011;11742;53.532;-1.478;2024-01-10T12:00:15;0.88;;;0.80;;
23146;SDS011;11742;53.532;-1.478;2024-01-10T12:03:01;1.48;;;0.90;;
23146;SDS011;11742;53.532;-1.478;2024-01-10T12:05:47;0.93;;;0.80;;
23146;SDS011;11742;53.532;-1.478;2024-01-10T12:08:31;0.60;;;0.60;;
23146;SDS011;11742;53.532;-1.478;2024-01-10T12:11:16;2.75;;;0.95;;
23146;SDS011;11742;53.532;-1.478;2024-01-10T12:14:01;0.70;;;0.70;;
23146;SDS011;11742;53.532;-1.478;2024-01-10T12:16:46;0.68;;;0.68;;
23146;SDS011;11742;53.532;-1.478;2024-01-10T12:19:31;0.95;;;0.88;;
23146;SDS011;11742;53.532;-1.478;2024-01-10T12:22:17;1.02;;;0.80;;
23146;SDS011;11742;53.532;-1.478;2024-01-10T12:25:05;0.80;;;0.80;;
23146;SDS011;11742;53.532;-1.478;2024-01-10T12:27:49;1.23;;;0.90;;
23146;SDS011;11742;53.532;-1.478;2024-01-10T12:30:34;1.38;;;0.80;;
23146;SDS011;11742;53.532;-1.478;2024-01-10T12:33:22;0.85;;;0.75;;
23146;SDS011;11742;53.532;-1.478;2024-01-10T12:36:08;1.45;;;0.80;;
23146;SDS011;11742;53.532;-1.478;2024-01-10T12:38:55;0.98;;;0.88;;
23146;SDS011;11742;53.532;-1.478;2024-01-10T12:41:40;0.77;;;0.77;;
23146;SDS011;11742;53.532;-1.478;2024-01-10T12:44:31;0.65;;;0.65;;
23146;SDS011;11742;53.532;-1.478;2024-01-10T12:47:19;1.02;;;0.93;;
23146;SDS011;11742;53.532;-1.478;2024-01-10T12:50:04;0.90;;;0.80;;
23146;SDS011;11742;53.532;-1.478;2024-01-10T12:52:49;1.27;;;0.90;;
23146;SDS011;11742;53.532;-1.478;2024-01-10T12:55:33;0.88;;;0.65;;
23146;SDS011;11742;53.532;-1.478;2024-01-10T12:58:17;0.80;;;0.73;;
23146;SDS011;11742;53.532;-1.478;2024-01-10T13:01:05;4.78;;;1.40;;
23146;SDS011;11742;53.532;-1.478;2024-01-10T13:03:49;4.13;;;1.10;;
23146;SDS011;11742;53.532;-1.478;2024-01-10T13:06:34;6.20;;;1.20;;
23146;SDS011;11742;53.532;-1.478;2024-01-10T13:09:19;5.78;;;1.20;;
23146;SDS011;11742;53.532;-1.478;2024-01-10T13:12:04;3.60;;;1.33;;
23146;SDS011;11742;53.532;-1.478;2024-01-10T13:14:48;7.05;;;1.45;;
23146;SDS011;11742;53.532;-1.478;2024-01-10T13:17:32;5.10;;;0.90;;
23146;SDS011;11742;53.532;-1.478;2024-01-10T13:20:16;2.10;;;1.00;;
23146;SDS011;11742;53.532;-1.478;2024-01-10T13:23:00;4.53;;;1.00;;
23146;SDS011;11742;53.532;-1.478;2024-01-10T13:25:45;10.93;;;1.23;;
23146;SDS011;11742;53.532;-1.478;2024-01-10T13:28:30;3.35;;;0.95;;
23146;SDS011;11742;53.532;-1.478;2024-01-10T13:31:14;1.38;;;0.88;;
23146;SDS011;11742;53.532;-1.478;2024-01-10T13:33:59;1.77;;;1.10;;
23146;SDS011;11742;53.532;-1.478;2024-01-10T13:36:43;5.18;;;1.10;;
23146;SDS011;11742;53.532;-1.478;2024-01-10T13:39:27;3.72;;;1.65;;
23146;SDS011;11742;53.532;-1.478;2024-01-10T13:42:12;3.25;;;2.30;;
23146;SDS011;11742;53.532;-1.478;2024-01-10T13:44:56;4.40;;;2.35;;
23146;SDS011;11742;53.532;-1.478;2024-01-10T13:47:40;7.18;;;2.35;;
23146;SDS011;11742;53.532;-1.478;2024-01-10T13:50:25;4.70;;;2.05;;
23146;SDS011;11742;53.532;-1.478;2024-01-10T13:53:09;4.78;;;2.05;;
23146;SDS011;11742;53.532;-1.478;2024-01-10T13:55:54;12.55;;;3.22;;
23146;SDS011;11742;53.532;-1.478;2024-01-10T13:58:39;5.93;;;1.60;;
23146;SDS011;11742;53.532;-1.478;2024-01-10T14:01:23;9.48;;;2.17;;
23146;SDS011;11742;53.532;-1.478;2024-01-10T14:04:07;4.80;;;1.48;;
23146;SDS011;11742;53.532;-1.478;2024-01-10T14:06:51;3.90;;;1.42;;
23146;SDS011;11742;53.532;-1.478;2024-01-10T14:09:35;6.57;;;1.55;;
23146;SDS011;11742;53.532;-1.478;2024-01-10T14:12:19;2.40;;;1.42;;
23146;SDS011;11742;53.532;-1.478;2024-01-10T14:15:04;1.33;;;1.23;;
23146;SDS011;11742;53.532;-1.478;2024-01-10T14:17:48;1.52;;;1.27;;
23146;SDS011;11742;53.532;-1.478;2024-01-10T14:20:33;2.40;;;1.30;;
23146;SDS011;11742;53.532;-1.478;2024-01-10T14:23:17;5.70;;;1.45;;
23146;SDS011;11742;53.532;-1.478;2024-01-10T14:26:01;4.80;;;1.42;;
23146;SDS011;11742;53.532;-1.478;2024-01-10T14:28:49;12.25;;;1.50;;
23146;SDS011;11742;53.532;-1.478;2024-01-10T14:31:36;12.23;;;1.92;;
23146;SDS011;11742;53.532;-1.478;2024-01-10T14:34:20;5.15;;;1.40;;
23146;SDS011;11742;53.532;-1.478;2024-01-10T14:37:05;6.05;;;1.38;;
23146;SDS011;11742;53.532;-1.478;2024-01-10T14:39:50;4.00;;;1.55;;
23146;SDS011;11742;53.532;-1.478;2024-01-10T14:42:34;3.65;;;1.30;;
23146;SDS011;11742;53.532;-1.478;2024-01-10T14:45:20;6.57;;;1.80;;
23146;SDS011;11742;53.532;-1.478;2024-01-10T14:48:04;4.63;;;1.25;;
23146;SDS011;11742;53.532;-1.478;2024-01-10T14:50:49;3.60;;;1.35;;
23146;SDS011;11742;53.532;-1.478;2024-01-10T14:53:33;2.88;;;1.33;;
23146;SDS011;11742;53.532;-1.478;2024-01-10T14:56:20;1.75;;;1.35;;
23146;SDS011;11742;53.532;-1.478;2024-01-10T14:59:05;2.75;;;1.35;;
23146;SDS011;11742;53.532;-1.478;2024-01-10T15:01:49;4.10;;;1.13;;
23146;SDS011;11742;53.532;-1.478;2024-01-10T15:04:39;1.77;;;1.17;;
23146;SDS011;11742;53.532;-1.478;2024-01-10T15:07:24;5.97;;;1.40;;
23146;SDS011;11742;53.532;-1.478;2024-01-10T15:10:08;2.45;;;1.20;;
23146;SDS011;11742;53.532;-1.478;2024-01-10T15:12:53;2.53;;;1.40;;
23146;SDS011;11742;53.532;-1.478;2024-01-10T15:15:38;1.77;;;1.10;;
23146;SDS011;11742;53.532;-1.478;2024-01-10T15:18:23;3.53;;;1.23;;
23146;SDS011;11742;53.532;-1.478;2024-01-10T15:21:07;3.33;;;1.52;;
23146;SDS011;11742;53.532;-1.478;2024-01-10T15:23:51;2.10;;;1.20;;
23146;SDS011;11742;53.532;-1.478;2024-01-10T15:26:37;1.30;;;1.20;;
23146;SDS011;11742;53.532;-1.478;2024-01-10T15:29:21;2.97;;;1.25;;
23146;SDS011;11742;53.532;-1.478;2024-01-10T15:32:06;2.67;;;1.13;;
23146;SDS011;11742;53.532;-1.478;2024-01-10T15:34:50;2.95;;;1.50;;
23146;SDS011;11742;53.532;-1.478;2024-01-10T15:37:35;1.30;;;1.20;;
23146;SDS011;11742;53.532;-1.478;2024-01-10T15:40:19;3.30;;;1.52;;
23146;SDS011;11742;53.532;-1.478;2024-01-10T15:43:04;2.65;;;1.13;;
23146;SDS011;11742;53.532;-1.478;2024-01-10T15:45:48;1.10;;;1.00;;
23146;SDS011;11742;53.532;-1.478;2024-01-10T15:48:33;1.20;;;1.10;;
23146;SDS011;11742;53.532;-1.478;2024-01-10T15:51:17;2.65;;;1.27;;
23146;SDS011;11742;53.532;-1.478;2024-01-10T15:54:02;2.47;;;0.90;;
23146;SDS011;11742;53.532;-1.478;2024-01-10T15:56:47;3.78;;;1.33;;
23146;SDS011;11742;53.532;-1.478;2024-01-10T15:59:31;2.25;;;1.02;;
23146;SDS011;11742;53.532;-1.478;2024-01-10T16:02:15;1.63;;;1.00;;
23146;SDS011;11742;53.532;-1.478;2024-01-10T16:05:00;1.48;;;1.00;;
23146;SDS011;11742;53.532;-1.478;2024-01-10T16:07:44;1.80;;;1.05;;
23146;SDS011;11742;53.532;-1.478;2024-01-10T16:10:29;1.15;;;0.93;;
23146;SDS011;11742;53.532;-1.478;2024-01-10T16:13:13;4.07;;;1.00;;
23146;SDS011;11742;53.532;-1.478;2024-01-10T16:15:57;5.50;;;1.92;;
23146;SDS011;11742;53.532;-1.478;2024-01-10T16:18:46;4.60;;;2.20;;
23146;SDS011;11742;53.532;-1.478;2024-01-10T16:21:30;3.63;;;2.22;;
23146;SDS011;11742;53.532;-1.478;2024-01-10T16:24:14;4.13;;;1.90;;
23146;SDS011;11742;53.532;-1.478;2024-01-10T16:27:00;2.95;;;1.85;;
23146;SDS011;11742;53.532;-1.478;2024-01-10T16:29:44;3.08;;;1.92;;
23146;SDS011;11742;53.532;-1.478;2024-01-10T16:32:28;3.30;;;1.98;;